sensor_id;sensor_type;location;lat;lon;timestamp;temperature;humidity
64654;DHT22;51065;48.884;12.598;2023-02-26T00:02:03;-0.40;99.90
64654;DHT22;51065;48.884;12.598;2023-02-26T00:04:29;-0.40;99.90
64654;DHT22;51065;48.884;12.598;2023-02-26T00:06:54;-0.40;99.90
64654;DHT22;51065;48.884;12.598;2023-02-26T00:09:21;-0.50;99.90
64654;DHT22;51065;48.884;12.598;2023-02-26T00:11:47;-0.50;99.90
64654;DHT22;51065;48.884;12.598;2023-02-26T00:14:14;-0.60;99.90
64654;DHT22;51065;48.884;12.598;2023-02-26T00:16:41;-0.60;99.90
64654;DHT22;51065;48.884;12.598;2023-02-26T00:19:09;-0.60;99.90
64654;DHT22;51065;48.884;12.598;2023-02-26T00:21:35;-0.60;99.90
64654;DHT22;51065;48.884;12.598;2023-02-26T00:24:01;-0.60;99.90
64654;DHT22;51065;48.884;12.598;2023-02-26T00:26:28;-0.60;99.90
64654;DHT22;51065;48.884;12.598;2023-02-26T00:28:54;-0.60;99.90
64654;DHT22;51065;48.884;12.598;2023-02-26T00:31:21;-0.60;99.90
64654;DHT22;51065;48.884;12.598;2023-02-26T00:33:53;-0.60;99.90
64654;DHT22;51065;48.884;12.598;2023-02-26T00:36:21;-0.60;99.90
64654;DHT22;51065;48.884;12.598;2023-02-26T00:39:01;-0.60;99.90
64654;DHT22;51065;48.884;12.598;2023-02-26T00:41:28;-0.60;99.90
64654;DHT22;51065;48.884;12.598;2023-02-26T00:43:54;-0.60;99.90
64654;DHT22;51065;48.884;12.598;2023-02-26T00:46:34;-0.60;99.90
64654;DHT22;51065;48.884;12.598;2023-02-26T00:52:39;-0.70;99.90
64654;DHT22;51065;48.884;12.598;2023-02-26T00:55:03;-0.70;99.90
64654;DHT22;51065;48.884;12.598;2023-02-26T00:57:29;-0.80;99.90
64654;DHT22;51065;48.884;12.598;2023-02-26T00:59:54;-0.70;99.90
64654;DHT22;51065;48.884;12.598;2023-02-26T01:02:20;-0.70;99.90
64654;DHT22;51065;48.884;12.598;2023-02-26T01:04:46;-0.70;99.90
64654;DHT22;51065;48.884;12.598;2023-02-26T01:07:13;-0.70;99.90
64654;DHT22;51065;48.884;12.598;2023-02-26T01:09:39;-0.70;99.90
64654;DHT22;51065;48.884;12.598;2023-02-26T01:12:08;-0.70;99.90
64654;DHT22;51065;48.884;12.598;2023-02-26T01:14:37;-0.70;99.90
64654;DHT22;51065;48.884;12.598;2023-02-26T01:17:20;-0.70;99.90
64654;DHT22;51065;48.884;12.598;2023-02-26T01:22:39;-0.70;99.90
64654;DHT22;51065;48.884;12.598;2023-02-26T01:25:11;-0.70;99.90
64654;DHT22;51065;48.884;12.598;2023-02-26T01:27:37;-0.70;99.90
64654;DHT22;51065;48.884;12.598;2023-02-26T01:30:05;-0.80;99.90
64654;DHT22;51065;48.884;12.598;2023-02-26T01:32:47;-0.70;99.90
64654;DHT22;51065;48.884;12.598;2023-02-26T01:37:59;-0.70;99.90
64654;DHT22;51065;48.884;12.598;2023-02-26T01:43:09;-0.70;99.90
64654;DHT22;51065;48.884;12.598;2023-02-26T01:48:53;-0.70;99.90
64654;DHT22;51065;48.884;12.598;2023-02-26T01:51:50;-0.70;99.90
64654;DHT22;51065;48.884;12.598;2023-02-26T01:54:21;-0.70;99.90
64654;DHT22;51065;48.884;12.598;2023-02-26T01:56:56;-0.70;99.90
64654;DHT22;51065;48.884;12.598;2023-02-26T01:59:23;-0.70;99.90
64654;DHT22;51065;48.884;12.598;2023-02-26T02:01:51;-0.80;99.90
64654;DHT22;51065;48.884;12.598;2023-02-26T02:04:17;-0.80;99.90
64654;DHT22;51065;48.884;12.598;2023-02-26T02:06:43;-0.90;99.90
64654;DHT22;51065;48.884;12.598;2023-02-26T02:09:10;-0.90;99.90
64654;DHT22;51065;48.884;12.598;2023-02-26T02:17:41;-1.10;99.90
64654;DHT22;51065;48.884;12.598;2023-02-26T02:23:09;-1.20;99.90
64654;DHT22;51065;48.884;12.598;2023-02-26T02:31:25;-1.30;99.90
64654;DHT22;51065;48.884;12.598;2023-02-26T02:34:09;-1.20;99.90
64654;DHT22;51065;48.884;12.598;2023-02-26T02:37:00;-1.30;99.90
64654;DHT22;51065;48.884;12.598;2023-02-26T02:39:30;-1.30;99.90
64654;DHT22;51065;48.884;12.598;2023-02-26T02:42:02;-1.30;99.90
64654;DHT22;51065;48.884;12.598;2023-02-26T02:44:31;-1.30;99.90
64654;DHT22;51065;48.884;12.598;2023-02-26T02:46:59;-1.30;99.90
64654;DHT22;51065;48.884;12.598;2023-02-26T02:49:34;-1.20;99.90
64654;DHT22;51065;48.884;12.598;2023-02-26T02:52:15;-1.20;99.90
64654;DHT22;51065;48.884;12.598;2023-02-26T02:55:02;-1.20;99.90
64654;DHT22;51065;48.884;12.598;2023-02-26T02:58:00;-1.30;99.90
64654;DHT22;51065;48.884;12.598;2023-02-26T03:00:30;-1.30;99.90
64654;DHT22;51065;48.884;12.598;2023-02-26T03:03:04;-1.40;99.90
64654;DHT22;51065;48.884;12.598;2023-02-26T03:05:31;-1.40;99.90
64654;DHT22;51065;48.884;12.598;2023-02-26T03:08:07;-1.40;99.90
64654;DHT22;51065;48.884;12.598;2023-02-26T03:10:34;-1.30;99.90
64654;DHT22;51065;48.884;12.598;2023-02-26T03:13:00;-1.30;99.90
64654;DHT22;51065;48.884;12.598;2023-02-26T03:21:23;-1.20;99.90
64654;DHT22;51065;48.884;12.598;2023-02-26T03:24:17;-1.10;99.90
64654;DHT22;51065;48.884;12.598;2023-02-26T03:26:49;-1.10;99.90
64654;DHT22;51065;48.884;12.598;2023-02-26T03:31:55;-1.10;99.90
64654;DHT22;51065;48.884;12.598;2023-02-26T03:34:31;-1.10;99.90
64654;DHT22;51065;48.884;12.598;2023-02-26T03:37:04;-1.10;99.90
64654;DHT22;51065;48.884;12.598;2023-02-26T03:39:39;-1.10;99.90
64654;DHT22;51065;48.884;12.598;2023-02-26T03:44:58;-1.10;99.90
64654;DHT22;51065;48.884;12.598;2023-02-26T03:47:26;-1.10;99.90
64654;DHT22;51065;48.884;12.598;2023-02-26T03:49:58;-1.00;99.90
64654;DHT22;51065;48.884;12.598;2023-02-26T03:52:28;-1.00;99.90
64654;DHT22;51065;48.884;12.598;2023-02-26T03:55:05;-1.00;99.90
64654;DHT22;51065;48.884;12.598;2023-02-26T03:57:34;-1.00;99.90
64654;DHT22;51065;48.884;12.598;2023-02-26T03:59:59;-1.00;99.90
64654;DHT22;51065;48.884;12.598;2023-02-26T04:02:33;-1.10;99.90
64654;DHT22;51065;48.884;12.598;2023-02-26T04:05:10;-1.10;99.90
64654;DHT22;51065;48.884;12.598;2023-02-26T04:07:38;-1.10;99.90
64654;DHT22;51065;48.884;12.598;2023-02-26T04:10:05;-1.10;99.90
64654;DHT22;51065;48.884;12.598;2023-02-26T04:12:32;-1.10;99.90
64654;DHT22;51065;48.884;12.598;2023-02-26T04:14:57;-1.00;99.90
64654;DHT22;51065;48.884;12.598;2023-02-26T04:17:23;-1.00;99.90
64654;DHT22;51065;48.884;12.598;2023-02-26T04:19:49;-1.00;99.90
64654;DHT22;51065;48.884;12.598;2023-02-26T04:22:15;-1.00;99.90
64654;DHT22;51065;48.884;12.598;2023-02-26T04:24:40;-1.00;99.90
64654;DHT22;51065;48.884;12.598;2023-02-26T04:27:06;-1.00;99.90
64654;DHT22;51065;48.884;12.598;2023-02-26T04:29:32;-1.00;99.90
64654;DHT22;51065;48.884;12.598;2023-02-26T04:31:57;-1.10;99.90
64654;DHT22;51065;48.884;12.598;2023-02-26T04:34:23;-1.00;99.90
64654;DHT22;51065;48.884;12.598;2023-02-26T04:36:49;-1.00;99.90
64654;DHT22;51065;48.884;12.598;2023-02-26T04:39:14;-1.00;99.90
64654;DHT22;51065;48.884;12.598;2023-02-26T04:41:40;-1.00;99.90
64654;DHT22;51065;48.884;12.598;2023-02-26T04:44:05;-1.00;99.90
64654;DHT22;51065;48.884;12.598;2023-02-26T04:46:31;-1.00;99.90
64654;DHT22;51065;48.884;12.598;2023-02-26T04:48:57;-1.00;99.90
64654;DHT22;51065;48.884;12.598;2023-02-26T04:51:23;-1.00;99.90
64654;DHT22;51065;48.884;12.598;2023-02-26T04:53:49;-1.00;99.90
64654;DHT22;51065;48.884;12.598;2023-02-26T04:56:14;-1.10;99.90
64654;DHT22;51065;48.884;12.598;2023-02-26T04:58:40;-1.10;99.90
64654;DHT22;51065;48.884;12.598;2023-02-26T05:01:06;-1.10;99.90
64654;DHT22;51065;48.884;12.598;2023-02-26T05:03:31;-1.10;99.90
64654;DHT22;51065;48.884;12.598;2023-02-26T05:05:57;-1.10;99.90
64654;DHT22;51065;48.884;12.598;2023-02-26T05:08:23;-1.10;99.90
64654;DHT22;51065;48.884;12.598;2023-02-26T05:10:50;-1.20;99.90
64654;DHT22;51065;48.884;12.598;2023-02-26T05:13:15;-1.20;99.90
64654;DHT22;51065;48.884;12.598;2023-02-26T05:15:44;-1.20;99.90
64654;DHT22;51065;48.884;12.598;2023-02-26T05:18:10;-1.20;99.90
64654;DHT22;51065;48.884;12.598;2023-02-26T05:20:35;-1.30;99.90
64654;DHT22;51065;48.884;12.598;2023-02-26T05:23:01;-1.30;99.90
64654;DHT22;51065;48.884;12.598;2023-02-26T05:25:27;-1.30;99.90
64654;DHT22;51065;48.884;12.598;2023-02-26T05:27:52;-1.30;99.90
64654;DHT22;51065;48.884;12.598;2023-02-26T05:30:18;-1.30;99.90
64654;DHT22;51065;48.884;12.598;2023-02-26T05:32:44;-1.40;99.90
64654;DHT22;51065;48.884;12.598;2023-02-26T05:35:10;-1.40;99.90
64654;DHT22;51065;48.884;12.598;2023-02-26T05:37:36;-1.40;99.90
64654;DHT22;51065;48.884;12.598;2023-02-26T05:40:04;-1.50;99.90
64654;DHT22;51065;48.884;12.598;2023-02-26T05:42:29;-1.50;99.90
64654;DHT22;51065;48.884;12.598;2023-02-26T05:44:55;-1.40;99.90
64654;DHT22;51065;48.884;12.598;2023-02-26T05:47:22;-1.40;99.90
64654;DHT22;51065;48.884;12.598;2023-02-26T05:49:48;-1.40;99.90
64654;DHT22;51065;48.884;12.598;2023-02-26T05:52:14;-1.40;99.90
64654;DHT22;51065;48.884;12.598;2023-02-26T05:54:39;-1.50;99.90
64654;DHT22;51065;48.884;12.598;2023-02-26T05:57:05;-1.40;99.90
64654;DHT22;51065;48.884;12.598;2023-02-26T05:59:30;-1.40;99.90
64654;DHT22;51065;48.884;12.598;2023-02-26T06:01:56;-1.40;99.90
64654;DHT22;51065;48.884;12.598;2023-02-26T06:04:21;-1.40;99.90
64654;DHT22;51065;48.884;12.598;2023-02-26T06:06:47;-1.40;99.90
64654;DHT22;51065;48.884;12.598;2023-02-26T06:09:12;-1.50;99.90
64654;DHT22;51065;48.884;12.598;2023-02-26T06:11:38;-1.40;99.90
64654;DHT22;51065;48.884;12.598;2023-02-26T06:14:05;-1.50;99.90
64654;DHT22;51065;48.884;12.598;2023-02-26T06:16:30;-1.50;99.90
64654;DHT22;51065;48.884;12.598;2023-02-26T06:18:57;-1.50;99.90
64654;DHT22;51065;48.884;12.598;2023-02-26T06:21:22;-1.40;99.90
64654;DHT22;51065;48.884;12.598;2023-02-26T06:23:48;-1.50;99.90
64654;DHT22;51065;48.884;12.598;2023-02-26T06:26:13;-1.40;99.90
64654;DHT22;51065;48.884;12.598;2023-02-26T06:28:39;-1.40;99.90
64654;DHT22;51065;48.884;12.598;2023-02-26T06:31:04;-1.40;99.90
64654;DHT22;51065;48.884;12.598;2023-02-26T06:33:30;-1.40;99.90
64654;DHT22;51065;48.884;12.598;2023-02-26T06:35:56;-1.30;99.90
64654;DHT22;51065;48.884;12.598;2023-02-26T06:38:23;-1.30;99.90
64654;DHT22;51065;48.884;12.598;2023-02-26T06:40:49;-1.20;99.90
64654;DHT22;51065;48.884;12.598;2023-02-26T06:43:14;-1.20;99.90
64654;DHT22;51065;48.884;12.598;2023-02-26T06:45:40;-1.10;99.90
64654;DHT22;51065;48.884;12.598;2023-02-26T06:48:06;-1.10;99.90
64654;DHT22;51065;48.884;12.598;2023-02-26T06:50:31;-1.10;99.90
64654;DHT22;51065;48.884;12.598;2023-02-26T06:52:57;-1.00;99.90
64654;DHT22;51065;48.884;12.598;2023-02-26T06:55:22;-1.00;99.90
64654;DHT22;51065;48.884;12.598;2023-02-26T06:57:55;-1.00;99.90
64654;DHT22;51065;48.884;12.598;2023-02-26T07:00:22;-1.00;99.90
64654;DHT22;51065;48.884;12.598;2023-02-26T07:02:48;-1.00;99.90
64654;DHT22;51065;48.884;12.598;2023-02-26T07:05:14;-0.90;99.90
64654;DHT22;51065;48.884;12.598;2023-02-26T07:07:40;-0.90;99.90
64654;DHT22;51065;48.884;12.598;2023-02-26T07:10:06;-0.90;99.90
64654;DHT22;51065;48.884;12.598;2023-02-26T07:12:32;-0.90;99.90
64654;DHT22;51065;48.884;12.598;2023-02-26T07:14:58;-0.90;99.90
64654;DHT22;51065;48.884;12.598;2023-02-26T07:17:23;-0.90;99.90
64654;DHT22;51065;48.884;12.598;2023-02-26T07:19:50;-0.80;99.90
64654;DHT22;51065;48.884;12.598;2023-02-26T07:22:17;-0.80;99.90
64654;DHT22;51065;48.884;12.598;2023-02-26T07:24:43;-0.70;99.90
64654;DHT22;51065;48.884;12.598;2023-02-26T07:27:10;-0.60;99.90
64654;DHT22;51065;48.884;12.598;2023-02-26T07:29:35;-0.50;99.90
64654;DHT22;51065;48.884;12.598;2023-02-26T07:32:02;-0.50;99.90
64654;DHT22;51065;48.884;12.598;2023-02-26T07:34:27;-0.40;99.90
64654;DHT22;51065;48.884;12.598;2023-02-26T07:36:53;-0.40;99.90
64654;DHT22;51065;48.884;12.598;2023-02-26T07:39:19;-0.30;99.90
64654;DHT22;51065;48.884;12.598;2023-02-26T07:41:44;-0.30;99.90
64654;DHT22;51065;48.884;12.598;2023-02-26T07:44:10;-0.30;99.90
64654;DHT22;51065;48.884;12.598;2023-02-26T07:46:35;-0.20;99.90
64654;DHT22;51065;48.884;12.598;2023-02-26T07:49:01;-0.20;99.90
64654;DHT22;51065;48.884;12.598;2023-02-26T07:51:26;-0.20;99.90
64654;DHT22;51065;48.884;12.598;2023-02-26T07:53:52;-0.10;99.90
64654;DHT22;51065;48.884;12.598;2023-02-26T07:56:17;0.10;99.90
64654;DHT22;51065;48.884;12.598;2023-02-26T07:58:43;0.10;99.90
64654;DHT22;51065;48.884;12.598;2023-02-26T08:01:09;0.20;99.90
64654;DHT22;51065;48.884;12.598;2023-02-26T08:03:34;0.10;99.90
64654;DHT22;51065;48.884;12.598;2023-02-26T08:06:00;0.10;99.90
64654;DHT22;51065;48.884;12.598;2023-02-26T08:08:26;0.00;99.90
64654;DHT22;51065;48.884;12.598;2023-02-26T08:10:52;0.00;99.90
64654;DHT22;51065;48.884;12.598;2023-02-26T08:13:17;0.10;99.90
64654;DHT22;51065;48.884;12.598;2023-02-26T08:15:43;0.00;99.90
64654;DHT22;51065;48.884;12.598;2023-02-26T08:18:09;0.20;99.90
64654;DHT22;51065;48.884;12.598;2023-02-26T08:20:35;0.30;99.90
64654;DHT22;51065;48.884;12.598;2023-02-26T08:23:01;0.40;99.90
64654;DHT22;51065;48.884;12.598;2023-02-26T08:25:27;0.60;99.90
64654;DHT22;51065;48.884;12.598;2023-02-26T08:27:52;0.90;99.90
64654;DHT22;51065;48.884;12.598;2023-02-26T08:30:18;0.90;99.90
64654;DHT22;51065;48.884;12.598;2023-02-26T08:32:44;1.30;99.90
64654;DHT22;51065;48.884;12.598;2023-02-26T08:35:10;1.40;99.90
64654;DHT22;51065;48.884;12.598;2023-02-26T08:37:37;1.50;99.90
64654;DHT22;51065;48.884;12.598;2023-02-26T08:40:06;1.30;99.90
64654;DHT22;51065;48.884;12.598;2023-02-26T08:42:34;1.00;99.90
64654;DHT22;51065;48.884;12.598;2023-02-26T08:45:00;1.00;99.90
64654;DHT22;51065;48.884;12.598;2023-02-26T08:47:25;1.20;99.90
64654;DHT22;51065;48.884;12.598;2023-02-26T08:49:51;1.20;99.90
64654;DHT22;51065;48.884;12.598;2023-02-26T08:52:18;1.50;99.90
64654;DHT22;51065;48.884;12.598;2023-02-26T08:54:44;1.80;99.90
64654;DHT22;51065;48.884;12.598;2023-02-26T08:57:09;2.20;99.90
64654;DHT22;51065;48.884;12.598;2023-02-26T08:59:35;2.20;98.50
64654;DHT22;51065;48.884;12.598;2023-02-26T09:02:00;1.80;98.20
64654;DHT22;51065;48.884;12.598;2023-02-26T09:04:26;1.80;99.80
64654;DHT22;51065;48.884;12.598;2023-02-26T09:06:52;1.90;99.00
64654;DHT22;51065;48.884;12.598;2023-02-26T09:09:18;1.80;99.00
64654;DHT22;51065;48.884;12.598;2023-02-26T09:11:44;1.50;98.30
64654;DHT22;51065;48.884;12.598;2023-02-26T09:14:10;1.30;99.90
64654;DHT22;51065;48.884;12.598;2023-02-26T09:16:35;1.30;99.70
64654;DHT22;51065;48.884;12.598;2023-02-26T09:19:03;1.40;98.90
64654;DHT22;51065;48.884;12.598;2023-02-26T09:21:32;1.70;98.80
64654;DHT22;51065;48.884;12.598;2023-02-26T09:23:58;2.60;96.60
64654;DHT22;51065;48.884;12.598;2023-02-26T09:26:24;3.20;93.60
64654;DHT22;51065;48.884;12.598;2023-02-26T09:28:49;3.60;91.20
64654;DHT22;51065;48.884;12.598;2023-02-26T09:31:15;3.50;90.50
64654;DHT22;51065;48.884;12.598;2023-02-26T09:33:41;3.60;93.10
64654;DHT22;51065;48.884;12.598;2023-02-26T09:36:07;3.90;90.40
64654;DHT22;51065;48.884;12.598;2023-02-26T09:38:32;4.00;79.00
64654;DHT22;51065;48.884;12.598;2023-02-26T09:41:06;3.80;81.70
64654;DHT22;51065;48.884;12.598;2023-02-26T09:48:44;4.30;87.20
64654;DHT22;51065;48.884;12.598;2023-02-26T09:51:15;4.50;81.70
64654;DHT22;51065;48.884;12.598;2023-02-26T09:53:42;4.30;87.10
64654;DHT22;51065;48.884;12.598;2023-02-26T09:56:16;4.10;88.80
64654;DHT22;51065;48.884;12.598;2023-02-26T09:58:44;3.50;89.10
64654;DHT22;51065;48.884;12.598;2023-02-26T10:01:15;3.90;87.90
64654;DHT22;51065;48.884;12.598;2023-02-26T10:06:37;3.10;92.50
64654;DHT22;51065;48.884;12.598;2023-02-26T10:12:02;2.60;95.40
64654;DHT22;51065;48.884;12.598;2023-02-26T10:20:24;4.00;88.40
64654;DHT22;51065;48.884;12.598;2023-02-26T10:23:03;4.00;84.40
64654;DHT22;51065;48.884;12.598;2023-02-26T10:25:36;3.70;91.90
64654;DHT22;51065;48.884;12.598;2023-02-26T10:28:16;4.20;86.60
64654;DHT22;51065;48.884;12.598;2023-02-26T10:30:57;4.30;80.30
64654;DHT22;51065;48.884;12.598;2023-02-26T10:33:49;4.80;78.70
64654;DHT22;51065;48.884;12.598;2023-02-26T10:36:57;4.60;77.20
64654;DHT22;51065;48.884;12.598;2023-02-26T10:39:25;3.80;72.70
64654;DHT22;51065;48.884;12.598;2023-02-26T10:41:52;3.70;79.90
64654;DHT22;51065;48.884;12.598;2023-02-26T10:44:27;4.00;83.40
64654;DHT22;51065;48.884;12.598;2023-02-26T10:52:25;4.40;69.90
64654;DHT22;51065;48.884;12.598;2023-02-26T10:58:15;3.80;76.90
64654;DHT22;51065;48.884;12.598;2023-02-26T11:00:50;3.00;77.00
64654;DHT22;51065;48.884;12.598;2023-02-26T11:03:41;2.50;79.00
64654;DHT22;51065;48.884;12.598;2023-02-26T11:06:05;2.30;82.70
64654;DHT22;51065;48.884;12.598;2023-02-26T11:08:45;2.40;78.10
64654;DHT22;51065;48.884;12.598;2023-02-26T11:14:03;2.80;76.50
64654;DHT22;51065;48.884;12.598;2023-02-26T11:16:28;3.60;67.90
64654;DHT22;51065;48.884;12.598;2023-02-26T11:18:54;4.20;64.20
64654;DHT22;51065;48.884;12.598;2023-02-26T11:21:33;4.40;63.20
64654;DHT22;51065;48.884;12.598;2023-02-26T11:24:06;4.90;64.20
64654;DHT22;51065;48.884;12.598;2023-02-26T11:26:42;5.40;60.70
64654;DHT22;51065;48.884;12.598;2023-02-26T11:29:22;6.00;56.80
64654;DHT22;51065;48.884;12.598;2023-02-26T11:31:53;6.40;56.50
64654;DHT22;51065;48.884;12.598;2023-02-26T11:34:23;6.60;52.50
64654;DHT22;51065;48.884;12.598;2023-02-26T11:36:52;6.20;49.80
64654;DHT22;51065;48.884;12.598;2023-02-26T11:39:28;5.50;51.80
64654;DHT22;51065;48.884;12.598;2023-02-26T11:41:57;4.90;54.00
64654;DHT22;51065;48.884;12.598;2023-02-26T11:44:39;4.50;54.80
64654;DHT22;51065;48.884;12.598;2023-02-26T11:47:18;4.20;56.20
64654;DHT22;51065;48.884;12.598;2023-02-26T11:49:50;4.60;57.40
64654;DHT22;51065;48.884;12.598;2023-02-26T11:52:43;6.10;54.10
64654;DHT22;51065;48.884;12.598;2023-02-26T11:55:20;6.30;49.60
64654;DHT22;51065;48.884;12.598;2023-02-26T11:57:51;5.00;52.00
64654;DHT22;51065;48.884;12.598;2023-02-26T12:00:38;4.10;53.00
64654;DHT22;51065;48.884;12.598;2023-02-26T12:03:06;3.80;55.10
64654;DHT22;51065;48.884;12.598;2023-02-26T12:05:35;4.90;53.50
64654;DHT22;51065;48.884;12.598;2023-02-26T12:08:03;5.40;54.40
64654;DHT22;51065;48.884;12.598;2023-02-26T12:10:51;5.60;58.10
64654;DHT22;51065;48.884;12.598;2023-02-26T12:13:43;6.00;58.00
64654;DHT22;51065;48.884;12.598;2023-02-26T12:16:40;5.30;57.00
64654;DHT22;51065;48.884;12.598;2023-02-26T12:19:35;4.30;62.30
64654;DHT22;51065;48.884;12.598;2023-02-26T12:22:28;3.50;73.90
64654;DHT22;51065;48.884;12.598;2023-02-26T12:27:56;3.00;74.60
64654;DHT22;51065;48.884;12.598;2023-02-26T12:38:54;5.40;58.10
64654;DHT22;51065;48.884;12.598;2023-02-26T12:41:42;6.90;56.40
64654;DHT22;51065;48.884;12.598;2023-02-26T12:44:26;6.50;52.60
64654;DHT22;51065;48.884;12.598;2023-02-26T12:54:41;6.10;53.40
64654;DHT22;51065;48.884;12.598;2023-02-26T12:57:38;6.50;55.70
64654;DHT22;51065;48.884;12.598;2023-02-26T13:00:45;6.50;54.40
64654;DHT22;51065;48.884;12.598;2023-02-26T13:03:23;6.00;55.20
64654;DHT22;51065;48.884;12.598;2023-02-26T13:06:20;5.50;54.50
64654;DHT22;51065;48.884;12.598;2023-02-26T13:09:19;4.80;56.60
64654;DHT22;51065;48.884;12.598;2023-02-26T13:12:03;4.80;58.00
64654;DHT22;51065;48.884;12.598;2023-02-26T13:14:47;3.90;55.50
64654;DHT22;51065;48.884;12.598;2023-02-26T13:19:53;4.20;55.70
64654;DHT22;51065;48.884;12.598;2023-02-26T13:22:25;4.30;56.20
64654;DHT22;51065;48.884;12.598;2023-02-26T13:24:59;4.30;61.80
64654;DHT22;51065;48.884;12.598;2023-02-26T13:27:32;4.20;64.70
64654;DHT22;51065;48.884;12.598;2023-02-26T13:32:39;4.60;57.40
64654;DHT22;51065;48.884;12.598;2023-02-26T13:35:20;4.70;61.40
64654;DHT22;51065;48.884;12.598;2023-02-26T13:37:49;4.90;60.30
64654;DHT22;51065;48.884;12.598;2023-02-26T13:40:46;5.00;53.50
64654;DHT22;51065;48.884;12.598;2023-02-26T13:51:48;4.40;55.10
64654;DHT22;51065;48.884;12.598;2023-02-26T14:12:17;6.10;52.00
64654;DHT22;51065;48.884;12.598;2023-02-26T14:17:38;5.00;53.50
64654;DHT22;51065;48.884;12.598;2023-02-26T14:20:25;4.10;56.30
64654;DHT22;51065;48.884;12.598;2023-02-26T14:33:47;2.60;96.50
64654;DHT22;51065;48.884;12.598;2023-02-26T14:36:51;2.30;98.40
64654;DHT22;51065;48.884;12.598;2023-02-26T14:39:36;2.30;95.00
64654;DHT22;51065;48.884;12.598;2023-02-26T14:42:06;2.40;93.20
64654;DHT22;51065;48.884;12.598;2023-02-26T14:44:39;2.40;92.70
64654;DHT22;51065;48.884;12.598;2023-02-26T14:47:06;2.70;91.10
64654;DHT22;51065;48.884;12.598;2023-02-26T14:49:38;2.70;90.60
64654;DHT22;51065;48.884;12.598;2023-02-26T14:55:08;2.60;82.30
64654;DHT22;51065;48.884;12.598;2023-02-26T14:58:00;2.40;86.00
64654;DHT22;51065;48.884;12.598;2023-02-26T15:06:17;1.90;91.90
64654;DHT22;51065;48.884;12.598;2023-02-26T15:14:48;1.90;89.30
64654;DHT22;51065;48.884;12.598;2023-02-26T15:20:39;2.10;87.30
64654;DHT22;51065;48.884;12.598;2023-02-26T15:25:44;2.20;79.10
64654;DHT22;51065;48.884;12.598;2023-02-26T15:30:47;2.40;78.20
64654;DHT22;51065;48.884;12.598;2023-02-26T15:33:13;2.50;76.80
64654;DHT22;51065;48.884;12.598;2023-02-26T15:35:42;2.50;76.60
64654;DHT22;51065;48.884;12.598;2023-02-26T15:38:09;2.10;95.40
64654;DHT22;51065;48.884;12.598;2023-02-26T15:40:36;1.70;99.90
64654;DHT22;51065;48.884;12.598;2023-02-26T15:43:04;1.40;99.90
64654;DHT22;51065;48.884;12.598;2023-02-26T15:45:43;1.30;99.90
64654;DHT22;51065;48.884;12.598;2023-02-26T15:50:41;0.80;99.90
64654;DHT22;51065;48.884;12.598;2023-02-26T15:53:12;0.60;99.90
64654;DHT22;51065;48.884;12.598;2023-02-26T15:55:46;0.50;99.90
64654;DHT22;51065;48.884;12.598;2023-02-26T15:58:32;0.30;99.90
64654;DHT22;51065;48.884;12.598;2023-02-26T16:01:00;0.20;99.90
64654;DHT22;51065;48.884;12.598;2023-02-26T16:03:33;0.10;99.90
64654;DHT22;51065;48.884;12.598;2023-02-26T16:05:59;0.00;99.90
64654;DHT22;51065;48.884;12.598;2023-02-26T16:08:25;0.00;99.90
64654;DHT22;51065;48.884;12.598;2023-02-26T16:10:53;0.00;99.90
64654;DHT22;51065;48.884;12.598;2023-02-26T16:13:31;0.10;99.90
64654;DHT22;51065;48.884;12.598;2023-02-26T16:16:00;0.20;99.90
64654;DHT22;51065;48.884;12.598;2023-02-26T16:18:29;0.30;99.90
64654;DHT22;51065;48.884;12.598;2023-02-26T16:20:56;0.40;99.90
64654;DHT22;51065;48.884;12.598;2023-02-26T16:23:36;0.50;99.90
64654;DHT22;51065;48.884;12.598;2023-02-26T16:26:05;0.60;99.90
64654;DHT22;51065;48.884;12.598;2023-02-26T16:28:35;0.70;99.90
64654;DHT22;51065;48.884;12.598;2023-02-26T16:31:03;0.70;99.90
64654;DHT22;51065;48.884;12.598;2023-02-26T16:33:32;0.60;99.90
64654;DHT22;51065;48.884;12.598;2023-02-26T16:36:28;0.50;99.90
64654;DHT22;51065;48.884;12.598;2023-02-26T16:39:00;0.40;99.90
64654;DHT22;51065;48.884;12.598;2023-02-26T16:41:30;0.40;99.90
64654;DHT22;51065;48.884;12.598;2023-02-26T16:43:58;0.30;99.90
64654;DHT22;51065;48.884;12.598;2023-02-26T16:46:44;0.20;99.90
64654;DHT22;51065;48.884;12.598;2023-02-26T16:49:21;0.20;99.90
64654;DHT22;51065;48.884;12.598;2023-02-26T16:51:48;0.20;99.90
64654;DHT22;51065;48.884;12.598;2023-02-26T16:56:45;0.20;99.90
64654;DHT22;51065;48.884;12.598;2023-02-26T16:59:13;0.20;99.90
64654;DHT22;51065;48.884;12.598;2023-02-26T17:02:09;0.30;99.90
64654;DHT22;51065;48.884;12.598;2023-02-26T17:04:38;0.30;99.90
64654;DHT22;51065;48.884;12.598;2023-02-26T17:07:36;0.30;99.90
64654;DHT22;51065;48.884;12.598;2023-02-26T17:10:34;0.30;99.90
64654;DHT22;51065;48.884;12.598;2023-02-26T17:13:12;0.30;99.90
64654;DHT22;51065;48.884;12.598;2023-02-26T17:15:39;0.20;99.90
64654;DHT22;51065;48.884;12.598;2023-02-26T17:18:05;0.10;99.90
64654;DHT22;51065;48.884;12.598;2023-02-26T17:20:33;0.10;99.90
64654;DHT22;51065;48.884;12.598;2023-02-26T17:23:00;0.00;99.90
64654;DHT22;51065;48.884;12.598;2023-02-26T17:25:32;-0.10;99.90
64654;DHT22;51065;48.884;12.598;2023-02-26T17:27:58;-0.10;99.90
64654;DHT22;51065;48.884;12.598;2023-02-26T17:30:24;-0.30;99.90
64654;DHT22;51065;48.884;12.598;2023-02-26T17:32:54;-0.20;99.90
64654;DHT22;51065;48.884;12.598;2023-02-26T17:35:19;-0.30;99.90
64654;DHT22;51065;48.884;12.598;2023-02-26T17:37:45;-0.20;99.90
64654;DHT22;51065;48.884;12.598;2023-02-26T17:40:38;0.00;99.90
64654;DHT22;51065;48.884;12.598;2023-02-26T17:43:05;0.00;99.90
64654;DHT22;51065;48.884;12.598;2023-02-26T17:45:31;0.00;99.90
64654;DHT22;51065;48.884;12.598;2023-02-26T17:47:58;0.00;99.90
64654;DHT22;51065;48.884;12.598;2023-02-26T17:50:47;-0.10;99.90
64654;DHT22;51065;48.884;12.598;2023-02-26T17:53:15;-0.10;99.90
64654;DHT22;51065;48.884;12.598;2023-02-26T17:55:41;-0.10;99.90
64654;DHT22;51065;48.884;12.598;2023-02-26T17:58:16;-0.10;99.90
64654;DHT22;51065;48.884;12.598;2023-02-26T18:00:42;-0.10;99.90
64654;DHT22;51065;48.884;12.598;2023-02-26T18:03:09;0.00;99.90
64654;DHT22;51065;48.884;12.598;2023-02-26T18:05:35;0.00;99.90
64654;DHT22;51065;48.884;12.598;2023-02-26T18:08:04;-0.10;99.90
64654;DHT22;51065;48.884;12.598;2023-02-26T18:10:31;0.00;99.90
64654;DHT22;51065;48.884;12.598;2023-02-26T18:12:56;0.00;99.90
64654;DHT22;51065;48.884;12.598;2023-02-26T18:15:22;0.00;99.90
64654;DHT22;51065;48.884;12.598;2023-02-26T18:17:47;0.00;99.90
64654;DHT22;51065;48.884;12.598;2023-02-26T18:20:21;0.00;99.90
64654;DHT22;51065;48.884;12.598;2023-02-26T18:22:48;0.00;99.90
64654;DHT22;51065;48.884;12.598;2023-02-26T18:25:18;0.00;99.90
64654;DHT22;51065;48.884;12.598;2023-02-26T18:27:44;0.00;99.90